createdAt,value
2022-12-17T00:00:38.141Z,98518.91
2022-12-17T00:03:24.433Z,98526.94
2022-12-17T00:06:10.707Z,98516.47
2022-12-17T00:08:56.556Z,98521.38
2022-12-17T00:11:42.465Z,98519.12
2022-12-17T00:14:28.705Z,98507.47
2022-12-17T00:17:15.659Z,98511.25
2022-12-17T00:20:01.823Z,98489.47
2022-12-17T00:22:47.685Z,98486.19
2022-12-17T00:25:33.549Z,98487.31
2022-12-17T00:28:19.535Z,98492.44
2022-12-17T00:31:11.858Z,98482.63
2022-12-17T00:33:57.478Z,98483.53
2022-12-17T00:36:43.423Z,98470.47
2022-12-17T00:39:29.048Z,98476.91
2022-12-17T00:42:15.079Z,98476.06
2022-12-17T00:45:02.626Z,98478.94
2022-12-17T00:47:49.217Z,98478.47
2022-12-17T00:50:36.305Z,98492.53
2022-12-17T00:53:22.214Z,98489.50
2022-12-17T00:56:07.944Z,98489.28
2022-12-17T00:58:54.742Z,98510.31
2022-12-17T01:01:40.866Z,98521.78
2022-12-17T01:04:26.985Z,98540.34
2022-12-17T01:07:12.737Z,98567.37
2022-12-17T01:09:58.756Z,98564.47
2022-12-17T01:12:44.616Z,98575.31
2022-12-17T01:15:30.867Z,98591.78
2022-12-17T01:18:16.782Z,98592.53
2022-12-17T01:21:02.629Z,98586.44
2022-12-17T01:23:49.136Z,98597.25
2022-12-17T01:26:36.030Z,98612.28
2022-12-17T01:29:21.817Z,98605.59
2022-12-17T01:32:08.144Z,98604.81
2022-12-17T01:34:53.803Z,98619.53
2022-12-17T01:37:39.809Z,98631.53
2022-12-17T01:40:27.936Z,98629.56
2022-12-17T01:43:13.978Z,98624.75
2022-12-17T01:46:02.475Z,98615.31
2022-12-17T01:48:49.456Z,98613.44
2022-12-17T01:51:35.308Z,98622.88
2022-12-17T01:54:21.630Z,98622.25
2022-12-17T01:57:07.642Z,98625.50
2022-12-17T02:00:02.945Z,98630.34
2022-12-17T02:02:59.625Z,98621.81
2022-12-17T02:06:15.716Z,98621.59
2022-12-17T02:09:16.969Z,98613.47
2022-12-17T02:12:20.210Z,98616.03
2022-12-17T02:15:15.234Z,98611.88
2022-12-17T02:18:03.530Z,98615.31
2022-12-17T02:20:50.626Z,98615.22
2022-12-17T02:23:37.234Z,98598.03
2022-12-17T02:26:33.884Z,98598.19
2022-12-17T02:29:20.596Z,98595.34
2022-12-17T02:32:06.669Z,98582.22
2022-12-17T02:35:01.414Z,98588.59
2022-12-17T02:37:47.860Z,98583.16
2022-12-17T02:40:33.974Z,98593.25
2022-12-17T02:43:19.945Z,98605.09
2022-12-17T02:46:13.948Z,98627.63
2022-12-17T02:49:00.005Z,98627.41
2022-12-17T02:51:47.265Z,98626.03
2022-12-17T02:54:33.067Z,98635.84
2022-12-17T02:57:19.334Z,98637.75
2022-12-17T03:00:05.127Z,98647.53
2022-12-17T03:02:51.694Z,98668.72
2022-12-17T03:05:45.795Z,98666.91
2022-12-17T03:08:32.559Z,98681.94
2022-12-17T03:11:18.648Z,98678.41
2022-12-17T03:14:04.715Z,98680.94
2022-12-17T03:16:50.755Z,98684.78
2022-12-17T03:19:36.917Z,98684.66
2022-12-17T03:22:23.219Z,98674.37
2022-12-17T03:25:09.010Z,98671.28
2022-12-17T03:27:54.914Z,98678.00
2022-12-17T03:30:45.692Z,98672.38
2022-12-17T03:33:34.770Z,98684.47
2022-12-17T03:36:21.189Z,98679.81
2022-12-17T03:39:07.156Z,98692.38
2022-12-17T03:41:53.643Z,98680.69
2022-12-17T03:44:39.722Z,98676.56
2022-12-17T03:47:25.469Z,98677.84
2022-12-17T03:50:11.184Z,98688.94
2022-12-17T03:52:57.236Z,98690.25
2022-12-17T03:55:56.720Z,98677.31
2022-12-17T03:58:42.917Z,98671.03
2022-12-17T04:01:28.892Z,98682.87
2022-12-17T04:04:15.155Z,98685.75
2022-12-17T04:07:01.098Z,98683.81
2022-12-17T04:09:47.012Z,98684.94
2022-12-17T04:12:33.016Z,98683.19
2022-12-17T04:15:19.173Z,98689.13
2022-12-17T04:18:04.884Z,98692.56
2022-12-17T04:20:51.038Z,98689.09
2022-12-17T04:23:37.137Z,98670.34
2022-12-17T04:26:23.256Z,98664.78
2022-12-17T04:29:08.886Z,98663.94
2022-12-17T04:31:54.835Z,98671.19
2022-12-17T04:34:40.735Z,98688.38
2022-12-17T04:37:34.372Z,98710.53
2022-12-17T04:40:20.019Z,98726.06
2022-12-17T04:43:05.951Z,98737.97
2022-12-17T04:45:51.882Z,98720.09
2022-12-17T04:48:38.019Z,98728.59
2022-12-17T04:51:24.018Z,98718.13
2022-12-17T04:54:10.248Z,98718.78
2022-12-17T04:56:56.127Z,98719.66
2022-12-17T04:59:42.258Z,98723.66
2022-12-17T05:02:32.596Z,98731.75
2022-12-17T05:05:18.590Z,98724.59
2022-12-17T05:08:04.472Z,98723.91
2022-12-17T05:10:50.764Z,98740.25
2022-12-17T05:13:36.959Z,98753.44
2022-12-17T05:16:23.440Z,98763.47
2022-12-17T05:19:10.687Z,98766.25
2022-12-17T05:21:56.688Z,98759.59
2022-12-17T05:24:43.067Z,98748.72
2022-12-17T05:27:29.108Z,98748.78
2022-12-17T05:30:15.031Z,98743.63
2022-12-17T05:33:01.453Z,98762.91
2022-12-17T05:35:47.244Z,98784.78
2022-12-17T05:38:33.234Z,98786.06
2022-12-17T05:41:19.272Z,98803.81
2022-12-17T05:44:05.522Z,98806.44
2022-12-17T05:46:51.547Z,98812.03
2022-12-17T05:49:37.849Z,98827.47
2022-12-17T05:52:23.732Z,98841.34
2022-12-17T05:55:09.657Z,98833.44
2022-12-17T05:57:56.747Z,98836.00
2022-12-17T06:00:42.880Z,98837.56
2022-12-17T06:03:29.306Z,98833.84
2022-12-17T06:06:16.432Z,98843.41
2022-12-17T06:09:02.273Z,98844.59
2022-12-17T06:11:48.244Z,98848.28
2022-12-17T06:14:34.294Z,98848.06
2022-12-17T06:17:20.336Z,98853.62
2022-12-17T06:20:06.453Z,98844.47
2022-12-17T06:22:52.048Z,98846.62
2022-12-17T06:25:39.329Z,98854.59
2022-12-17T06:28:25.003Z,98872.34
2022-12-17T06:31:11.501Z,98874.28
2022-12-17T06:33:57.668Z,98870.97
2022-12-17T06:36:43.659Z,98892.16
2022-12-17T06:39:30.390Z,98896.84
2022-12-17T06:42:16.825Z,98905.81
2022-12-17T06:45:02.650Z,98905.00
2022-12-17T06:47:49.073Z,98917.03
2022-12-17T06:50:35.000Z,98907.06
2022-12-17T06:53:23.325Z,98920.81
2022-12-17T06:56:09.312Z,98917.47
2022-12-17T06:58:55.511Z,98937.22
2022-12-17T07:01:41.571Z,98931.50
2022-12-17T07:04:27.556Z,98936.78
2022-12-17T07:07:13.118Z,98939.97
2022-12-17T07:09:59.501Z,98942.06
2022-12-17T07:12:45.491Z,98938.34
2022-12-17T07:15:31.469Z,98938.75
2022-12-17T07:18:18.228Z,98938.19
2022-12-17T07:21:05.020Z,98943.38
2022-12-17T07:23:50.817Z,98936.41
2022-12-17T07:26:37.107Z,98937.50
2022-12-17T07:29:23.027Z,98939.72
2022-12-17T07:32:08.949Z,98952.00
2022-12-17T07:34:54.762Z,98956.41
2022-12-17T07:37:41.003Z,98953.97
2022-12-17T07:40:28.689Z,98972.78
2022-12-17T07:43:14.743Z,98966.88
2022-12-17T07:46:00.262Z,98968.69
2022-12-17T07:48:46.424Z,98966.13
2022-12-17T07:51:32.371Z,98974.25
2022-12-17T07:54:18.610Z,98984.28
2022-12-17T07:57:04.480Z,98985.91
2022-12-17T08:00:01.560Z,98985.63
2022-12-17T08:02:47.661Z,98992.63
2022-12-17T08:05:33.598Z,99002.37
2022-12-17T08:08:26.022Z,99015.47
2022-12-17T08:11:11.931Z,99004.81
2022-12-17T08:13:57.869Z,99027.38
2022-12-17T08:16:43.984Z,99034.81
2022-12-17T08:19:29.716Z,99039.25
2022-12-17T08:22:15.651Z,99056.75
2022-12-17T08:25:01.603Z,99048.22
2022-12-17T08:27:58.093Z,99058.31
2022-12-17T08:30:43.783Z,99059.88
2022-12-17T08:33:29.969Z,99050.84
2022-12-17T08:36:15.854Z,99067.59
2022-12-17T08:39:01.930Z,99066.09
2022-12-17T08:41:54.034Z,99075.75
2022-12-17T08:44:41.126Z,99076.72
2022-12-17T08:47:27.075Z,99070.81
2022-12-17T08:50:13.284Z,99069.81
2022-12-17T08:52:59.443Z,99072.16
2022-12-17T08:55:45.555Z,99088.66
2022-12-17T08:58:33.265Z,99089.09
2022-12-17T09:01:21.879Z,99096.06
2022-12-17T09:04:07.551Z,99092.28
2022-12-17T09:06:53.760Z,99098.62
2022-12-17T09:09:39.356Z,99107.06
2022-12-17T09:12:25.261Z,99112.00
2022-12-17T09:15:11.045Z,99118.66
2022-12-17T09:17:57.278Z,99111.97
2022-12-17T09:20:43.139Z,99112.31
2022-12-17T09:23:29.189Z,99107.38
2022-12-17T09:26:15.498Z,99115.94
2022-12-17T09:29:01.629Z,99145.41
2022-12-17T09:31:48.420Z,99134.31
2022-12-17T09:34:34.576Z,99128.50
2022-12-17T09:37:21.096Z,99134.16
2022-12-17T09:40:07.121Z,99116.22
2022-12-17T09:43:11.792Z,99127.62
2022-12-17T09:46:00.671Z,99124.78
2022-12-17T09:48:48.050Z,99134.78
2022-12-17T09:51:41.280Z,99124.28
2022-12-17T09:54:31.723Z,99143.25
2022-12-17T09:57:18.119Z,99146.31
2022-12-17T10:00:04.153Z,99151.84
2022-12-17T10:02:58.369Z,99140.66
2022-12-17T10:06:05.746Z,99145.16
2022-12-17T10:08:51.693Z,99164.56
2022-12-17T10:11:45.730Z,99150.94
2022-12-17T10:14:34.672Z,99159.31
2022-12-17T10:17:20.950Z,99165.13
2022-12-17T10:20:08.263Z,99188.72
2022-12-17T10:23:04.219Z,99177.09
2022-12-17T10:25:50.099Z,99182.41
2022-12-17T10:28:37.939Z,99193.59
2022-12-17T10:31:28.639Z,99193.06
2022-12-17T10:34:15.505Z,99207.47
2022-12-17T10:37:19.487Z,99206.50
2022-12-17T10:40:15.772Z,99212.53
2022-12-17T10:43:04.039Z,99215.78
2022-12-17T10:45:51.749Z,99237.22
2022-12-17T10:48:41.232Z,99232.88
2022-12-17T10:51:39.411Z,99239.28
2022-12-17T10:54:57.527Z,99246.66
2022-12-17T10:57:50.900Z,99245.44
2022-12-17T11:00:36.841Z,99256.59
2022-12-17T11:03:23.538Z,99271.81
2022-12-17T11:06:10.132Z,99264.28
2022-12-17T11:08:57.808Z,99284.09
2022-12-17T11:11:43.744Z,99275.34
2022-12-17T11:14:29.965Z,99294.41
2022-12-17T11:17:18.004Z,99283.53
2022-12-17T11:20:50.507Z,99269.59
2022-12-17T11:23:37.536Z,99294.53
2022-12-17T11:26:28.562Z,99270.44
2022-12-17T11:29:14.543Z,99281.44
2022-12-17T11:32:19.823Z,99291.97
2022-12-17T11:35:18.033Z,99295.38
2022-12-17T11:38:07.917Z,99330.44
2022-12-17T11:41:00.555Z,99311.34
2022-12-17T11:43:55.931Z,99326.41
2022-12-17T11:46:46.424Z,99326.44
2022-12-17T11:49:45.333Z,99329.81
2022-12-17T11:52:34.650Z,99327.09
2022-12-17T11:55:24.370Z,99324.13
2022-12-17T11:58:10.362Z,99340.19
2022-12-17T12:01:15.689Z,99337.84
2022-12-17T12:04:01.960Z,99340.88
2022-12-17T12:06:53.720Z,99372.81
2022-12-17T12:09:42.167Z,99373.97
2022-12-17T12:12:38.041Z,99399.13
2022-12-17T12:15:44.442Z,99414.78
2022-12-17T12:18:44.258Z,99397.63
2022-12-17T12:21:39.787Z,99407.16
2022-12-17T12:24:41.504Z,99419.31
2022-12-17T12:27:46.877Z,99420.34
2022-12-17T12:30:36.782Z,99422.22
2022-12-17T12:33:43.050Z,99412.00
2022-12-17T12:36:29.351Z,99421.50
2022-12-17T12:39:15.622Z,99419.16
2022-12-17T12:42:03.981Z,99425.22
2022-12-17T12:44:58.491Z,99435.19
2022-12-17T12:47:47.376Z,99436.16
2022-12-17T12:50:33.686Z,99431.47
2022-12-17T12:53:19.916Z,99428.69
2022-12-17T12:56:05.793Z,99433.12
2022-12-17T12:58:52.707Z,99437.09
2022-12-17T13:01:39.275Z,99452.00
2022-12-17T13:04:44.172Z,99452.66
2022-12-17T13:07:37.620Z,99443.84
2022-12-17T13:10:16.151Z,99456.84
2022-12-17T13:12:44.954Z,99459.97
2022-12-17T13:15:35.435Z,99453.63
2022-12-17T13:18:21.097Z,99455.13
2022-12-17T13:21:23.679Z,99458.63
2022-12-17T13:23:51.320Z,99467.91
2022-12-17T13:26:23.132Z,99461.00
2022-12-17T13:28:59.674Z,99465.88
2022-12-17T13:31:47.104Z,99476.66
2022-12-17T13:34:23.522Z,99483.19
2022-12-17T13:36:53.537Z,99499.03
2022-12-17T13:39:47.252Z,99492.44
2022-12-17T13:42:34.624Z,99488.81
2022-12-17T13:45:02.042Z,99499.22
2022-12-17T13:47:30.866Z,99504.16
2022-12-17T13:52:47.736Z,99508.28
2022-12-17T13:55:19.540Z,99501.53
2022-12-17T13:57:46.854Z,99522.72
2022-12-17T14:00:19.021Z,99534.66
2022-12-17T14:02:46.748Z,99545.31
2022-12-17T14:05:24.068Z,99549.56
2022-12-17T14:07:51.626Z,99536.06
2022-12-17T14:10:18.852Z,99542.03
2022-12-17T14:12:46.123Z,99540.00
2022-12-17T14:15:22.381Z,99546.78
2022-12-17T14:17:49.534Z,99555.97
2022-12-17T14:20:18.022Z,99557.97
2022-12-17T14:22:51.270Z,99564.13
2022-12-17T14:25:18.931Z,99560.47
2022-12-17T14:27:54.629Z,99573.34
2022-12-17T14:30:24.058Z,99583.69
2022-12-17T14:32:51.233Z,99587.41
2022-12-17T14:35:31.594Z,99598.28
2022-12-17T14:37:59.019Z,99582.22
2022-12-17T14:40:26.342Z,99585.59
2022-12-17T14:42:54.039Z,99594.41
2022-12-17T14:45:22.919Z,99597.66
2022-12-17T14:48:00.174Z,99606.03
2022-12-17T14:50:29.409Z,99605.72
2022-12-17T14:52:57.715Z,99624.25
2022-12-17T14:55:35.688Z,99645.50
2022-12-17T14:58:07.859Z,99643.53
2022-12-17T15:00:37.205Z,99637.66
2022-12-17T15:03:05.644Z,99639.12
2022-12-17T15:05:33.027Z,99657.28
2022-12-17T15:08:00.228Z,99658.56
2022-12-17T15:10:27.692Z,99669.81
2022-12-17T15:12:54.817Z,99683.44
2022-12-17T15:15:22.061Z,99678.41
2022-12-17T15:17:50.478Z,99672.59
2022-12-17T15:20:18.247Z,99669.25
2022-12-17T15:22:45.764Z,99649.34
2022-12-17T15:25:14.049Z,99651.47
2022-12-17T15:27:41.410Z,99645.22
2022-12-17T15:30:10.065Z,99659.94
2022-12-17T15:32:37.495Z,99657.75
2022-12-17T15:35:04.962Z,99671.34
2022-12-17T15:37:32.119Z,99670.72
2022-12-17T15:39:59.565Z,99662.03
2022-12-17T15:42:45.521Z,99657.31
2022-12-17T15:45:13.337Z,99672.56
2022-12-17T15:47:40.803Z,99689.16
2022-12-17T15:50:08.604Z,99697.31
2022-12-17T15:52:36.115Z,99704.88
2022-12-17T15:55:03.494Z,99696.94
2022-12-17T15:57:30.987Z,99703.50
2022-12-17T15:59:58.825Z,99691.16
2022-12-17T16:02:26.289Z,99679.03
2022-12-17T16:04:53.924Z,99672.94
2022-12-17T16:07:21.799Z,99677.59
2022-12-17T16:09:50.730Z,99677.41
2022-12-17T16:12:18.512Z,99690.13
2022-12-17T16:14:45.827Z,99696.87
2022-12-17T16:17:13.276Z,99690.34
2022-12-17T16:19:40.895Z,99711.56
2022-12-17T16:22:08.069Z,99702.38
2022-12-17T16:24:35.320Z,99725.53
2022-12-17T16:27:04.782Z,99732.13
2022-12-17T16:29:32.523Z,99738.06
2022-12-17T16:32:02.584Z,99725.88
2022-12-17T16:34:30.199Z,99749.13
2022-12-17T16:36:57.702Z,99750.75
2022-12-17T16:39:28.233Z,99764.81
2022-12-17T16:41:56.015Z,99768.94
2022-12-17T16:44:23.290Z,99763.56
2022-12-17T16:46:52.214Z,99777.16
2022-12-17T16:49:20.978Z,99778.41
2022-12-17T16:51:50.255Z,99777.66
2022-12-17T16:54:18.664Z,99782.38
2022-12-17T16:56:46.790Z,99793.03
2022-12-17T16:59:14.543Z,99783.50
2022-12-17T17:01:42.592Z,99798.97
2022-12-17T17:04:10.339Z,99809.63
2022-12-17T17:06:38.450Z,99816.53
2022-12-17T17:09:05.657Z,99809.59
2022-12-17T17:11:33.096Z,99818.09
2022-12-17T17:14:00.258Z,99823.31
2022-12-17T17:16:28.969Z,99827.94
2022-12-17T17:18:56.483Z,99833.94
2022-12-17T17:21:24.774Z,99835.28
2022-12-17T17:23:54.010Z,99837.56
2022-12-17T17:26:25.065Z,99850.72
2022-12-17T17:28:52.333Z,99835.78
2022-12-17T17:31:19.716Z,99840.44
2022-12-17T17:33:49.328Z,99867.50
2022-12-17T17:36:21.165Z,99881.03
2022-12-17T17:38:48.966Z,99879.41
2022-12-17T17:41:17.645Z,99883.56
2022-12-17T17:43:45.561Z,99878.63
2022-12-17T17:46:16.774Z,99882.97
2022-12-17T17:48:44.668Z,99879.94
2022-12-17T17:51:13.199Z,99882.47
2022-12-17T17:53:41.389Z,99886.69
2022-12-17T17:56:14.943Z,99881.00
2022-12-17T17:58:43.352Z,99900.88
2022-12-17T18:01:11.180Z,99902.09
2022-12-17T18:03:39.334Z,99909.69
2022-12-17T18:06:07.416Z,99909.25
2022-12-17T18:08:35.388Z,99909.78
2022-12-17T18:11:06.452Z,99916.22
2022-12-17T18:13:52.625Z,99930.88
2022-12-17T18:16:20.606Z,99940.81
2022-12-17T18:18:48.051Z,99932.94
2022-12-17T18:21:16.351Z,99946.84
2022-12-17T18:23:44.139Z,99949.66
2022-12-17T18:26:18.884Z,99958.69
2022-12-17T18:28:47.360Z,99952.63
2022-12-17T18:31:24.304Z,99963.16
2022-12-17T18:33:58.562Z,99957.56
2022-12-17T18:36:35.555Z,99967.22
2022-12-17T18:39:05.319Z,99967.16
2022-12-17T18:41:51.214Z,99972.09
2022-12-17T18:44:19.131Z,99977.41
2022-12-17T18:46:46.720Z,99994.69
2022-12-17T18:49:14.466Z,99997.84
2022-12-17T18:51:43.087Z,99999.81
2022-12-17T18:54:18.404Z,100014.06
2022-12-17T18:57:00.835Z,100017.97
2022-12-17T18:59:29.496Z,100008.44
2022-12-17T19:01:57.640Z,100019.47
2022-12-17T19:04:25.311Z,100014.56
2022-12-17T19:06:53.728Z,100017.63
2022-12-17T19:09:23.127Z,100027.66
2022-12-17T19:11:50.563Z,100027.69
2022-12-17T19:14:19.011Z,100042.44
2022-12-17T19:16:47.884Z,100048.00
2022-12-17T19:19:15.701Z,100043.78
2022-12-17T19:21:43.854Z,100053.28
2022-12-17T19:24:13.694Z,100044.19
2022-12-17T19:26:41.494Z,100054.31
2022-12-17T19:29:10.669Z,100057.72
2022-12-17T19:31:38.893Z,100058.94
2022-12-17T19:34:06.949Z,100055.91
2022-12-17T19:36:35.009Z,100063.28
2022-12-17T19:39:03.807Z,100072.91
2022-12-17T19:41:32.915Z,100077.22
2022-12-17T19:44:04.295Z,100089.97
2022-12-17T19:46:32.901Z,100089.72
2022-12-17T19:49:00.726Z,100098.37
2022-12-17T19:51:28.643Z,100094.78
2022-12-17T19:53:56.729Z,100108.00
2022-12-17T19:56:27.942Z,100104.22
2022-12-17T19:58:57.005Z,100097.16
2022-12-17T20:01:25.709Z,100093.12
2022-12-17T20:04:03.340Z,100095.38
2022-12-17T20:06:31.662Z,100099.78
2022-12-17T20:08:59.238Z,100102.16
2022-12-17T20:11:33.334Z,100120.50
2022-12-17T20:14:23.697Z,100124.84
2022-12-17T20:16:52.896Z,100133.31
2022-12-17T20:19:21.607Z,100140.94
2022-12-17T20:21:50.735Z,100141.66
2022-12-17T20:24:21.259Z,100136.25
2022-12-17T20:26:52.272Z,100143.94
2022-12-17T20:29:21.891Z,100146.47
2022-12-17T20:31:50.262Z,100148.56
2022-12-17T20:34:19.250Z,100146.31
2022-12-17T20:36:48.561Z,100152.31
2022-12-17T20:39:16.220Z,100165.53
2022-12-17T20:41:44.472Z,100168.81
2022-12-17T20:44:12.962Z,100172.47
2022-12-17T20:46:44.190Z,100174.12
2022-12-17T20:49:12.236Z,100180.59
2022-12-17T20:51:39.852Z,100179.34
2022-12-17T20:54:08.796Z,100192.34
2022-12-17T20:56:37.006Z,100186.63
2022-12-17T20:59:05.472Z,100197.75
2022-12-17T21:01:33.803Z,100198.59
2022-12-17T21:04:02.090Z,100194.75
2022-12-17T21:06:32.387Z,100211.19
2022-12-17T21:08:59.976Z,100201.34
2022-12-17T21:11:28.819Z,100216.84
2022-12-17T21:13:56.627Z,100222.09
2022-12-17T21:16:25.434Z,100230.63
2022-12-17T21:18:59.611Z,100221.72
2022-12-17T21:21:27.837Z,100235.44
2022-12-17T21:23:57.483Z,100230.87
2022-12-17T21:26:25.923Z,100233.63
2022-12-17T21:28:54.921Z,100247.47
2022-12-17T21:31:28.184Z,100245.53
2022-12-17T21:33:57.110Z,100245.69
2022-12-17T21:36:26.368Z,100255.34
2022-12-17T21:38:53.839Z,100248.66
2022-12-17T21:41:25.262Z,100246.84
2022-12-17T21:43:56.180Z,100257.69
2022-12-17T21:46:23.922Z,100262.00
2022-12-17T21:48:52.807Z,100270.38
2022-12-17T21:51:22.761Z,100263.97
2022-12-17T21:53:57.250Z,100285.81
2022-12-17T21:56:25.129Z,100280.44
2022-12-17T21:58:56.698Z,100285.28
2022-12-17T22:01:25.477Z,100280.41
2022-12-17T22:03:54.463Z,100288.84
2022-12-17T22:06:23.440Z,100292.19
2022-12-17T22:08:58.656Z,100290.88
2022-12-17T22:11:31.528Z,100295.88
2022-12-17T22:14:20.391Z,100312.84
2022-12-17T22:16:49.333Z,100312.16
2022-12-17T22:19:22.479Z,100319.63
2022-12-17T22:21:50.481Z,100321.34
2022-12-17T22:24:18.883Z,100322.00
2022-12-17T22:26:46.199Z,100317.66
2022-12-17T22:29:38.022Z,100320.41
2022-12-17T22:32:28.109Z,100323.12
2022-12-17T22:36:13.508Z,100324.22
2022-12-17T22:42:34.133Z,100323.56
2022-12-17T22:44:29.672Z,100333.06
2022-12-17T22:44:37.552Z,100320.38
2022-12-17T22:46:18.154Z,100333.13
2022-12-17T22:48:45.683Z,100332.13
2022-12-17T22:51:21.358Z,100342.03
2022-12-17T22:53:55.930Z,100325.50
2022-12-17T22:56:29.000Z,100331.16
2022-12-17T22:59:17.769Z,100334.63
2022-12-17T23:01:45.093Z,100334.22
2022-12-17T23:04:13.688Z,100344.81
2022-12-17T23:06:41.233Z,100354.81
2022-12-17T23:09:08.372Z,100364.84
2022-12-17T23:11:35.784Z,100367.62
2022-12-17T23:14:02.968Z,100372.91
2022-12-17T23:16:30.545Z,100370.44
2022-12-17T23:18:59.553Z,100374.28
2022-12-17T23:21:26.764Z,100377.72
2022-12-17T23:23:54.232Z,100387.16
2022-12-17T23:26:41.943Z,100392.66
2022-12-17T23:29:10.329Z,100397.78
2022-12-17T23:31:42.916Z,100410.25
2022-12-17T23:34:10.065Z,100405.88
2022-12-17T23:36:37.203Z,100408.94
2022-12-17T23:39:04.702Z,100418.41
2022-12-17T23:41:31.978Z,100422.03
2022-12-17T23:43:59.347Z,100422.53
2022-12-17T23:46:27.589Z,100437.66
2022-12-17T23:48:54.925Z,100431.31
2022-12-17T23:51:22.445Z,100432.31
2022-12-17T23:53:50.202Z,100436.75
2022-12-17T23:56:20.974Z,100436.22
2022-12-17T23:58:48.261Z,100433.13
